sensor_id;sensor_type;location;lat;lon;timestamp;P1;durP1;ratioP1;P2;durP2;ratioP2
56770;SDS011;42641;59.794;17.616;2022-08-25T00:02:00;2.40;;;1.40;;
56770;SDS011;42641;59.794;17.616;2022-08-25T00:04:28;1.60;;;1.50;;
56770;SDS011;42641;59.794;17.616;2022-08-25T00:06:55;2.40;;;1.60;;
56770;SDS011;42641;59.794;17.616;2022-08-25T00:09:23;2.37;;;1.40;;
56770;SDS011;42641;59.794;17.616;2022-08-25T00:11:50;2.00;;;1.53;;
56770;SDS011;42641;59.794;17.616;2022-08-25T00:14:20;3.90;;;1.67;;
56770;SDS011;42641;59.794;17.616;2022-08-25T00:16:49;1.90;;;1.50;;
56770;SDS011;42641;59.794;17.616;2022-08-25T00:19:20;4.13;;;1.50;;
56770;SDS011;42641;59.794;17.616;2022-08-25T00:21:52;1.93;;;1.50;;
56770;SDS011;42641;59.794;17.616;2022-08-25T00:24:19;1.70;;;1.60;;
56770;SDS011;42641;59.794;17.616;2022-08-25T00:26:48;3.77;;;1.60;;
56770;SDS011;42641;59.794;17.616;2022-08-25T00:29:17;1.93;;;1.43;;
56770;SDS011;42641;59.794;17.616;2022-08-25T00:31:43;3.13;;;1.60;;
56770;SDS011;42641;59.794;17.616;2022-08-25T00:34:12;1.73;;;1.63;;
56770;SDS011;42641;59.794;17.616;2022-08-25T00:36:42;3.00;;;1.57;;
56770;SDS011;42641;59.794;17.616;2022-08-25T00:39:09;3.03;;;1.53;;
56770;SDS011;42641;59.794;17.616;2022-08-25T00:41:36;2.20;;;1.50;;
56770;SDS011;42641;59.794;17.616;2022-08-25T00:44:06;1.50;;;1.30;;
56770;SDS011;42641;59.794;17.616;2022-08-25T00:46:38;1.93;;;1.30;;
56770;SDS011;42641;59.794;17.616;2022-08-25T00:49:12;2.17;;;1.60;;
56770;SDS011;42641;59.794;17.616;2022-08-25T00:51:44;1.50;;;1.40;;
56770;SDS011;42641;59.794;17.616;2022-08-25T00:54:17;2.23;;;1.60;;
56770;SDS011;42641;59.794;17.616;2022-08-25T00:56:48;3.07;;;1.60;;
56770;SDS011;42641;59.794;17.616;2022-08-25T00:59:17;4.07;;;1.60;;
56770;SDS011;42641;59.794;17.616;2022-08-25T01:01:45;1.60;;;1.50;;
56770;SDS011;42641;59.794;17.616;2022-08-25T01:04:11;1.53;;;1.33;;
56770;SDS011;42641;59.794;17.616;2022-08-25T01:06:38;3.50;;;1.87;;
56770;SDS011;42641;59.794;17.616;2022-08-25T01:09:09;4.50;;;1.60;;
56770;SDS011;42641;59.794;17.616;2022-08-25T01:11:39;3.57;;;1.50;;
56770;SDS011;42641;59.794;17.616;2022-08-25T01:14:09;4.23;;;1.43;;
56770;SDS011;42641;59.794;17.616;2022-08-25T01:16:39;1.70;;;1.60;;
56770;SDS011;42641;59.794;17.616;2022-08-25T01:19:08;1.60;;;1.50;;
56770;SDS011;42641;59.794;17.616;2022-08-25T01:21:39;2.93;;;1.50;;
56770;SDS011;42641;59.794;17.616;2022-08-25T01:24:08;1.97;;;1.80;;
56770;SDS011;42641;59.794;17.616;2022-08-25T01:26:40;1.93;;;1.63;;
56770;SDS011;42641;59.794;17.616;2022-08-25T01:29:07;1.83;;;1.67;;
56770;SDS011;42641;59.794;17.616;2022-08-25T01:31:47;1.87;;;1.50;;
56770;SDS011;42641;59.794;17.616;2022-08-25T01:34:15;1.70;;;1.60;;
56770;SDS011;42641;59.794;17.616;2022-08-25T01:36:42;2.20;;;1.50;;
56770;SDS011;42641;59.794;17.616;2022-08-25T01:39:10;2.27;;;1.90;;
56770;SDS011;42641;59.794;17.616;2022-08-25T01:44:24;2.27;;;1.90;;
56770;SDS011;42641;59.794;17.616;2022-08-25T01:46:51;2.77;;;1.77;;
56770;SDS011;42641;59.794;17.616;2022-08-25T01:49:18;4.37;;;1.80;;
56770;SDS011;42641;59.794;17.616;2022-08-25T01:51:51;2.10;;;1.87;;
56770;SDS011;42641;59.794;17.616;2022-08-25T01:54:22;3.23;;;1.60;;
56770;SDS011;42641;59.794;17.616;2022-08-25T01:56:49;1.80;;;1.70;;
56770;SDS011;42641;59.794;17.616;2022-08-25T01:59:16;2.07;;;1.60;;
56770;SDS011;42641;59.794;17.616;2022-08-25T02:01:44;2.60;;;1.57;;
56770;SDS011;42641;59.794;17.616;2022-08-25T02:04:11;1.63;;;1.33;;
56770;SDS011;42641;59.794;17.616;2022-08-25T02:06:38;2.30;;;1.53;;
56770;SDS011;42641;59.794;17.616;2022-08-25T02:09:07;1.63;;;1.53;;
56770;SDS011;42641;59.794;17.616;2022-08-25T02:11:36;2.37;;;1.70;;
56770;SDS011;42641;59.794;17.616;2022-08-25T02:14:05;1.83;;;1.60;;
56770;SDS011;42641;59.794;17.616;2022-08-25T02:16:32;2.87;;;2.03;;
56770;SDS011;42641;59.794;17.616;2022-08-25T02:19:03;3.30;;;1.60;;
56770;SDS011;42641;59.794;17.616;2022-08-25T02:21:31;4.37;;;1.60;;
56770;SDS011;42641;59.794;17.616;2022-08-25T02:23:59;2.83;;;1.60;;
56770;SDS011;42641;59.794;17.616;2022-08-25T02:26:26;3.03;;;1.80;;
56770;SDS011;42641;59.794;17.616;2022-08-25T02:28:52;2.07;;;1.83;;
56770;SDS011;42641;59.794;17.616;2022-08-25T02:31:20;1.80;;;1.70;;
56770;SDS011;42641;59.794;17.616;2022-08-25T02:33:48;3.30;;;2.00;;
56770;SDS011;42641;59.794;17.616;2022-08-25T02:36:15;1.63;;;1.53;;
56770;SDS011;42641;59.794;17.616;2022-08-25T02:38:42;3.83;;;1.60;;
56770;SDS011;42641;59.794;17.616;2022-08-25T02:41:10;2.60;;;1.60;;
56770;SDS011;42641;59.794;17.616;2022-08-25T02:43:39;2.40;;;1.47;;
56770;SDS011;42641;59.794;17.616;2022-08-25T02:46:07;3.87;;;1.70;;
56770;SDS011;42641;59.794;17.616;2022-08-25T02:48:34;5.60;;;1.67;;
56770;SDS011;42641;59.794;17.616;2022-08-25T02:51:02;2.63;;;1.50;;
56770;SDS011;42641;59.794;17.616;2022-08-25T02:53:30;3.30;;;1.80;;
56770;SDS011;42641;59.794;17.616;2022-08-25T02:55:57;2.30;;;1.77;;
56770;SDS011;42641;59.794;17.616;2022-08-25T02:58:24;1.87;;;1.67;;
56770;SDS011;42641;59.794;17.616;2022-08-25T03:00:51;2.93;;;1.47;;
56770;SDS011;42641;59.794;17.616;2022-08-25T03:03:18;3.10;;;1.70;;
56770;SDS011;42641;59.794;17.616;2022-08-25T03:05:45;1.87;;;1.40;;
56770;SDS011;42641;59.794;17.616;2022-08-25T03:08:12;1.80;;;1.60;;
56770;SDS011;42641;59.794;17.616;2022-08-25T03:10:38;4.17;;;1.70;;
56770;SDS011;42641;59.794;17.616;2022-08-25T03:13:05;4.40;;;1.70;;
56770;SDS011;42641;59.794;17.616;2022-08-25T03:15:31;1.90;;;1.80;;
56770;SDS011;42641;59.794;17.616;2022-08-25T03:17:57;3.57;;;2.13;;
56770;SDS011;42641;59.794;17.616;2022-08-25T03:20:24;4.30;;;1.70;;
56770;SDS011;42641;59.794;17.616;2022-08-25T03:22:52;2.63;;;1.93;;
56770;SDS011;42641;59.794;17.616;2022-08-25T03:25:18;5.63;;;1.80;;
56770;SDS011;42641;59.794;17.616;2022-08-25T03:28:05;3.87;;;1.80;;
56770;SDS011;42641;59.794;17.616;2022-08-25T03:30:32;3.50;;;1.90;;
56770;SDS011;42641;59.794;17.616;2022-08-25T03:32:59;3.30;;;1.50;;
56770;SDS011;42641;59.794;17.616;2022-08-25T03:35:25;1.90;;;1.70;;
56770;SDS011;42641;59.794;17.616;2022-08-25T03:37:55;5.40;;;1.80;;
56770;SDS011;42641;59.794;17.616;2022-08-25T03:40:22;2.27;;;1.80;;
56770;SDS011;42641;59.794;17.616;2022-08-25T03:42:49;2.70;;;1.63;;
56770;SDS011;42641;59.794;17.616;2022-08-25T03:45:16;3.57;;;1.67;;
56770;SDS011;42641;59.794;17.616;2022-08-25T03:47:47;4.00;;;1.80;;
56770;SDS011;42641;59.794;17.616;2022-08-25T03:50:15;2.43;;;1.80;;
56770;SDS011;42641;59.794;17.616;2022-08-25T03:52:43;3.00;;;1.70;;
56770;SDS011;42641;59.794;17.616;2022-08-25T03:55:11;1.87;;;1.70;;
56770;SDS011;42641;59.794;17.616;2022-08-25T03:57:39;2.50;;;1.70;;
56770;SDS011;42641;59.794;17.616;2022-08-25T04:00:06;2.23;;;1.50;;
56770;SDS011;42641;59.794;17.616;2022-08-25T04:02:37;1.60;;;1.50;;
56770;SDS011;42641;59.794;17.616;2022-08-25T04:05:05;3.30;;;1.70;;
56770;SDS011;42641;59.794;17.616;2022-08-25T04:07:31;2.50;;;1.60;;
56770;SDS011;42641;59.794;17.616;2022-08-25T04:09:58;2.07;;;1.70;;
56770;SDS011;42641;59.794;17.616;2022-08-25T04:12:24;2.13;;;1.70;;
56770;SDS011;42641;59.794;17.616;2022-08-25T04:14:51;4.10;;;1.63;;
56770;SDS011;42641;59.794;17.616;2022-08-25T04:17:17;3.77;;;1.87;;
56770;SDS011;42641;59.794;17.616;2022-08-25T04:19:44;2.47;;;1.80;;
56770;SDS011;42641;59.794;17.616;2022-08-25T04:22:10;4.40;;;1.90;;
56770;SDS011;42641;59.794;17.616;2022-08-25T04:24:36;4.33;;;1.80;;
56770;SDS011;42641;59.794;17.616;2022-08-25T04:27:03;2.43;;;1.50;;
56770;SDS011;42641;59.794;17.616;2022-08-25T04:29:29;2.37;;;1.77;;
56770;SDS011;42641;59.794;17.616;2022-08-25T04:31:56;3.60;;;1.90;;
56770;SDS011;42641;59.794;17.616;2022-08-25T04:34:23;2.53;;;1.77;;
56770;SDS011;42641;59.794;17.616;2022-08-25T04:36:51;2.03;;;1.63;;
56770;SDS011;42641;59.794;17.616;2022-08-25T04:39:18;1.93;;;1.70;;
56770;SDS011;42641;59.794;17.616;2022-08-25T04:41:46;3.27;;;1.77;;
56770;SDS011;42641;59.794;17.616;2022-08-25T04:44:13;3.00;;;1.80;;
56770;SDS011;42641;59.794;17.616;2022-08-25T04:46:39;2.40;;;1.73;;
56770;SDS011;42641;59.794;17.616;2022-08-25T04:49:06;2.67;;;1.60;;
56770;SDS011;42641;59.794;17.616;2022-08-25T04:51:36;3.07;;;1.83;;
56770;SDS011;42641;59.794;17.616;2022-08-25T04:54:05;2.70;;;1.97;;
56770;SDS011;42641;59.794;17.616;2022-08-25T04:56:35;2.37;;;1.60;;
56770;SDS011;42641;59.794;17.616;2022-08-25T04:59:03;1.90;;;1.80;;
56770;SDS011;42641;59.794;17.616;2022-08-25T05:01:31;2.63;;;1.70;;
56770;SDS011;42641;59.794;17.616;2022-08-25T05:04:00;3.13;;;1.80;;
56770;SDS011;42641;59.794;17.616;2022-08-25T05:06:28;3.67;;;1.87;;
56770;SDS011;42641;59.794;17.616;2022-08-25T05:08:55;3.47;;;1.83;;
56770;SDS011;42641;59.794;17.616;2022-08-25T05:11:23;3.33;;;1.63;;
56770;SDS011;42641;59.794;17.616;2022-08-25T05:13:51;2.53;;;1.80;;
56770;SDS011;42641;59.794;17.616;2022-08-25T05:16:19;3.17;;;1.53;;
56770;SDS011;42641;59.794;17.616;2022-08-25T05:18:47;1.77;;;1.67;;
56770;SDS011;42641;59.794;17.616;2022-08-25T05:21:18;3.23;;;1.70;;
56770;SDS011;42641;59.794;17.616;2022-08-25T05:23:47;2.23;;;1.73;;
56770;SDS011;42641;59.794;17.616;2022-08-25T05:26:17;2.17;;;1.80;;
56770;SDS011;42641;59.794;17.616;2022-08-25T05:28:45;3.80;;;1.80;;
56770;SDS011;42641;59.794;17.616;2022-08-25T05:31:14;1.73;;;1.50;;
56770;SDS011;42641;59.794;17.616;2022-08-25T05:33:41;1.97;;;1.70;;
56770;SDS011;42641;59.794;17.616;2022-08-25T05:36:08;2.30;;;1.50;;
56770;SDS011;42641;59.794;17.616;2022-08-25T05:38:36;1.80;;;1.70;;
56770;SDS011;42641;59.794;17.616;2022-08-25T05:41:05;1.53;;;1.43;;
56770;SDS011;42641;59.794;17.616;2022-08-25T05:43:35;1.77;;;1.67;;
56770;SDS011;42641;59.794;17.616;2022-08-25T05:46:03;2.30;;;1.70;;
56770;SDS011;42641;59.794;17.616;2022-08-25T05:48:29;1.90;;;1.80;;
56770;SDS011;42641;59.794;17.616;2022-08-25T05:50:57;1.93;;;1.60;;
56770;SDS011;42641;59.794;17.616;2022-08-25T05:53:25;3.30;;;1.70;;
56770;SDS011;42641;59.794;17.616;2022-08-25T05:55:54;2.47;;;2.23;;
56770;SDS011;42641;59.794;17.616;2022-08-25T05:58:21;1.83;;;1.70;;
56770;SDS011;42641;59.794;17.616;2022-08-25T06:00:49;1.80;;;1.63;;
56770;SDS011;42641;59.794;17.616;2022-08-25T06:03:16;2.10;;;1.50;;
56770;SDS011;42641;59.794;17.616;2022-08-25T06:05:43;2.77;;;1.70;;
56770;SDS011;42641;59.794;17.616;2022-08-25T06:08:09;2.67;;;1.63;;
56770;SDS011;42641;59.794;17.616;2022-08-25T06:10:36;1.70;;;1.60;;
56770;SDS011;42641;59.794;17.616;2022-08-25T06:13:03;2.63;;;1.70;;
56770;SDS011;42641;59.794;17.616;2022-08-25T06:15:30;2.05;;;1.80;;
56770;SDS011;42641;59.794;17.616;2022-08-25T06:17:58;3.03;;;1.70;;
56770;SDS011;42641;59.794;17.616;2022-08-25T06:20:27;3.20;;;1.65;;
56770;SDS011;42641;59.794;17.616;2022-08-25T06:22:55;3.07;;;1.70;;
56770;SDS011;42641;59.794;17.616;2022-08-25T06:25:23;2.90;;;1.53;;
56770;SDS011;42641;59.794;17.616;2022-08-25T06:27:51;1.60;;;1.50;;
56770;SDS011;42641;59.794;17.616;2022-08-25T06:30:20;1.55;;;1.45;;
56770;SDS011;42641;59.794;17.616;2022-08-25T06:32:48;2.05;;;1.52;;
56770;SDS011;42641;59.794;17.616;2022-08-25T06:35:16;1.92;;;1.55;;
56770;SDS011;42641;59.794;17.616;2022-08-25T06:37:43;2.05;;;1.85;;
56770;SDS011;42641;59.794;17.616;2022-08-25T06:40:11;1.52;;;1.42;;
56770;SDS011;42641;59.794;17.616;2022-08-25T06:42:38;1.50;;;1.40;;
56770;SDS011;42641;59.794;17.616;2022-08-25T06:45:06;2.90;;;1.50;;
56770;SDS011;42641;59.794;17.616;2022-08-25T06:47:34;1.35;;;1.25;;
56770;SDS011;42641;59.794;17.616;2022-08-25T06:50:00;2.85;;;1.40;;
56770;SDS011;42641;59.794;17.616;2022-08-25T06:52:28;2.60;;;1.23;;
56770;SDS011;42641;59.794;17.616;2022-08-25T06:54:55;2.45;;;1.27;;
56770;SDS011;42641;59.794;17.616;2022-08-25T06:57:21;1.73;;;1.40;;
56770;SDS011;42641;59.794;17.616;2022-08-25T06:59:48;1.30;;;1.20;;
56770;SDS011;42641;59.794;17.616;2022-08-25T07:02:14;1.25;;;1.20;;
56770;SDS011;42641;59.794;17.616;2022-08-25T07:04:40;4.70;;;1.40;;
56770;SDS011;42641;59.794;17.616;2022-08-25T07:07:07;1.33;;;1.23;;
56770;SDS011;42641;59.794;17.616;2022-08-25T07:09:33;1.30;;;1.20;;
56770;SDS011;42641;59.794;17.616;2022-08-25T07:11:59;1.85;;;1.30;;
56770;SDS011;42641;59.794;17.616;2022-08-25T07:14:27;2.30;;;1.20;;
56770;SDS011;42641;59.794;17.616;2022-08-25T07:16:53;3.00;;;1.40;;
56770;SDS011;42641;59.794;17.616;2022-08-25T07:19:20;2.40;;;1.30;;
56770;SDS011;42641;59.794;17.616;2022-08-25T07:21:48;2.47;;;1.42;;
56770;SDS011;42641;59.794;17.616;2022-08-25T07:24:16;1.25;;;1.10;;
56770;SDS011;42641;59.794;17.616;2022-08-25T07:26:43;1.55;;;1.00;;
56770;SDS011;42641;59.794;17.616;2022-08-25T07:29:12;1.92;;;1.30;;
56770;SDS011;42641;59.794;17.616;2022-08-25T07:31:43;1.05;;;0.95;;
56770;SDS011;42641;59.794;17.616;2022-08-25T07:34:10;2.97;;;1.17;;
56770;SDS011;42641;59.794;17.616;2022-08-25T07:36:55;1.60;;;1.45;;
56770;SDS011;42641;59.794;17.616;2022-08-25T07:52:27;1.25;;;1.20;;
56770;SDS011;42641;59.794;17.616;2022-08-25T07:54:54;2.15;;;1.52;;
56770;SDS011;42641;59.794;17.616;2022-08-25T07:57:20;2.38;;;1.40;;
56770;SDS011;42641;59.794;17.616;2022-08-25T07:59:49;1.40;;;1.30;;
56770;SDS011;42641;59.794;17.616;2022-08-25T08:02:15;2.15;;;1.60;;
56770;SDS011;42641;59.794;17.616;2022-08-25T08:04:43;2.20;;;1.45;;
56770;SDS011;42641;59.794;17.616;2022-08-25T08:07:10;1.88;;;1.45;;
56770;SDS011;42641;59.794;17.616;2022-08-25T08:09:36;1.63;;;1.40;;
56770;SDS011;42641;59.794;17.616;2022-08-25T08:12:03;1.17;;;1.10;;
56770;SDS011;42641;59.794;17.616;2022-08-25T08:14:30;3.67;;;1.40;;
56770;SDS011;42641;59.794;17.616;2022-08-25T08:16:56;1.83;;;1.30;;
56770;SDS011;42641;59.794;17.616;2022-08-25T08:19:23;2.08;;;1.38;;
56770;SDS011;42641;59.794;17.616;2022-08-25T08:21:49;1.40;;;1.15;;
56770;SDS011;42641;59.794;17.616;2022-08-25T08:24:16;2.95;;;1.38;;
56770;SDS011;42641;59.794;17.616;2022-08-25T08:26:42;1.92;;;1.20;;
56770;SDS011;42641;59.794;17.616;2022-08-25T08:29:08;1.30;;;1.20;;
56770;SDS011;42641;59.794;17.616;2022-08-25T08:31:35;2.20;;;1.27;;
56770;SDS011;42641;59.794;17.616;2022-08-25T08:34:01;1.30;;;1.20;;
56770;SDS011;42641;59.794;17.616;2022-08-25T08:36:28;3.20;;;1.23;;
56770;SDS011;42641;59.794;17.616;2022-08-25T08:38:54;1.85;;;1.30;;
56770;SDS011;42641;59.794;17.616;2022-08-25T08:46:48;1.70;;;1.30;;
56770;SDS011;42641;59.794;17.616;2022-08-25T08:49:47;3.30;;;1.40;;
56770;SDS011;42641;59.794;17.616;2022-08-25T08:52:18;1.48;;;1.30;;
56770;SDS011;42641;59.794;17.616;2022-08-25T08:54:52;3.17;;;1.40;;
56770;SDS011;42641;59.794;17.616;2022-08-25T08:57:27;3.60;;;1.30;;
56770;SDS011;42641;59.794;17.616;2022-08-25T08:59:56;4.47;;;1.30;;
56770;SDS011;42641;59.794;17.616;2022-08-25T09:02:27;4.32;;;1.40;;
56770;SDS011;42641;59.794;17.616;2022-08-25T09:05:08;1.45;;;1.08;;
56770;SDS011;42641;59.794;17.616;2022-08-25T09:08:02;2.90;;;1.10;;
56770;SDS011;42641;59.794;17.616;2022-08-25T09:10:33;2.80;;;1.55;;
56770;SDS011;42641;59.794;17.616;2022-08-25T09:30:07;1.50;;;1.10;;
56770;SDS011;42641;59.794;17.616;2022-08-25T09:32:47;7.32;;;0.98;;
56770;SDS011;42641;59.794;17.616;2022-08-25T09:35:25;1.50;;;1.00;;
56770;SDS011;42641;59.794;17.616;2022-08-25T09:38:04;3.17;;;0.90;;
56770;SDS011;42641;59.794;17.616;2022-08-25T09:40:35;0.90;;;0.90;;
56770;SDS011;42641;59.794;17.616;2022-08-25T09:43:04;0.85;;;0.85;;
56770;SDS011;42641;59.794;17.616;2022-08-25T09:46:08;4.20;;;1.30;;
56770;SDS011;42641;59.794;17.616;2022-08-25T09:49:10;4.82;;;1.05;;
56770;SDS011;42641;59.794;17.616;2022-08-25T09:51:38;2.10;;;0.88;;
56770;SDS011;42641;59.794;17.616;2022-08-25T09:54:14;1.83;;;1.05;;
56770;SDS011;42641;59.794;17.616;2022-08-25T10:01:56;4.22;;;1.25;;
56770;SDS011;42641;59.794;17.616;2022-08-25T10:04:42;2.55;;;1.10;;
56770;SDS011;42641;59.794;17.616;2022-08-25T10:07:32;2.13;;;1.08;;
56770;SDS011;42641;59.794;17.616;2022-08-25T10:10:01;5.38;;;1.25;;
56770;SDS011;42641;59.794;17.616;2022-08-25T10:12:41;2.78;;;1.23;;
56770;SDS011;42641;59.794;17.616;2022-08-25T10:15:30;1.98;;;1.00;;
56770;SDS011;42641;59.794;17.616;2022-08-25T10:21:12;3.72;;;1.10;;
56770;SDS011;42641;59.794;17.616;2022-08-25T10:23:46;1.40;;;1.10;;
56770;SDS011;42641;59.794;17.616;2022-08-25T10:31:55;1.27;;;0.95;;
56770;SDS011;42641;59.794;17.616;2022-08-25T10:34:53;2.03;;;1.13;;
56770;SDS011;42641;59.794;17.616;2022-08-25T10:40:36;3.22;;;0.90;;
56770;SDS011;42641;59.794;17.616;2022-08-25T10:46:12;2.40;;;1.10;;
56770;SDS011;42641;59.794;17.616;2022-08-25T10:49:17;1.88;;;1.13;;
56770;SDS011;42641;59.794;17.616;2022-08-25T10:52:28;1.75;;;1.02;;
56770;SDS011;42641;59.794;17.616;2022-08-25T10:55:10;1.80;;;0.90;;
56770;SDS011;42641;59.794;17.616;2022-08-25T10:57:51;1.00;;;1.00;;
56770;SDS011;42641;59.794;17.616;2022-08-25T11:00:25;1.40;;;1.15;;
56770;SDS011;42641;59.794;17.616;2022-08-25T11:03:17;1.10;;;1.00;;
56770;SDS011;42641;59.794;17.616;2022-08-25T11:05:58;1.40;;;1.00;;
56770;SDS011;42641;59.794;17.616;2022-08-25T11:11:04;1.23;;;0.93;;
56770;SDS011;42641;59.794;17.616;2022-08-25T11:13:40;3.20;;;1.10;;
56770;SDS011;42641;59.794;17.616;2022-08-25T11:16:13;0.93;;;0.88;;
56770;SDS011;42641;59.794;17.616;2022-08-25T11:18:55;1.85;;;1.08;;
56770;SDS011;42641;59.794;17.616;2022-08-25T11:21:49;1.63;;;1.20;;
56770;SDS011;42641;59.794;17.616;2022-08-25T11:24:30;1.30;;;0.93;;
56770;SDS011;42641;59.794;17.616;2022-08-25T11:27:11;2.35;;;1.00;;
56770;SDS011;42641;59.794;17.616;2022-08-25T11:29:45;1.38;;;1.02;;
56770;SDS011;42641;59.794;17.616;2022-08-25T11:32:35;1.67;;;1.10;;
56770;SDS011;42641;59.794;17.616;2022-08-25T11:35:03;1.85;;;0.95;;
56770;SDS011;42641;59.794;17.616;2022-08-25T11:37:32;3.70;;;1.10;;
56770;SDS011;42641;59.794;17.616;2022-08-25T11:54:02;1.10;;;0.98;;
56770;SDS011;42641;59.794;17.616;2022-08-25T11:56:40;2.42;;;1.10;;
56770;SDS011;42641;59.794;17.616;2022-08-25T11:59:07;5.63;;;1.10;;
56770;SDS011;42641;59.794;17.616;2022-08-25T12:04:12;1.17;;;0.80;;
56770;SDS011;42641;59.794;17.616;2022-08-25T12:09:32;2.25;;;1.20;;
56770;SDS011;42641;59.794;17.616;2022-08-25T12:12:54;2.47;;;1.05;;
56770;SDS011;42641;59.794;17.616;2022-08-25T12:15:22;1.13;;;0.80;;
56770;SDS011;42641;59.794;17.616;2022-08-25T12:26:07;1.17;;;0.82;;
56770;SDS011;42641;59.794;17.616;2022-08-25T12:36:54;4.65;;;1.58;;
56770;SDS011;42641;59.794;17.616;2022-08-25T12:39:32;4.75;;;1.00;;
56770;SDS011;42641;59.794;17.616;2022-08-25T12:42:05;0.85;;;0.77;;
56770;SDS011;42641;59.794;17.616;2022-08-25T12:44:47;0.70;;;0.70;;
56770;SDS011;42641;59.794;17.616;2022-08-25T12:47:31;1.75;;;0.90;;
56770;SDS011;42641;59.794;17.616;2022-08-25T12:53:06;3.15;;;1.23;;
56770;SDS011;42641;59.794;17.616;2022-08-25T12:55:48;2.25;;;1.00;;
56770;SDS011;42641;59.794;17.616;2022-08-25T12:58:16;2.90;;;1.00;;
56770;SDS011;42641;59.794;17.616;2022-08-25T13:03:24;0.98;;;0.80;;
56770;SDS011;42641;59.794;17.616;2022-08-25T13:16:50;2.25;;;0.95;;
56770;SDS011;42641;59.794;17.616;2022-08-25T13:19:22;0.77;;;0.68;;
56770;SDS011;42641;59.794;17.616;2022-08-25T13:21:50;1.55;;;0.80;;
56770;SDS011;42641;59.794;17.616;2022-08-25T13:24:33;2.30;;;0.93;;
56770;SDS011;42641;59.794;17.616;2022-08-25T13:27:06;1.00;;;0.90;;
56770;SDS011;42641;59.794;17.616;2022-08-25T13:29:34;3.40;;;1.00;;
56770;SDS011;42641;59.794;17.616;2022-08-25T13:32:13;3.42;;;0.90;;
56770;SDS011;42641;59.794;17.616;2022-08-25T13:34:49;13.45;;;2.58;;
56770;SDS011;42641;59.794;17.616;2022-08-25T13:37:22;0.95;;;0.85;;
56770;SDS011;42641;59.794;17.616;2022-08-25T13:42:47;0.70;;;0.70;;
56770;SDS011;42641;59.794;17.616;2022-08-25T13:45:23;4.10;;;0.98;;
56770;SDS011;42641;59.794;17.616;2022-08-25T13:47:54;2.55;;;0.90;;
56770;SDS011;42641;59.794;17.616;2022-08-25T13:58:04;3.35;;;1.10;;
56770;SDS011;42641;59.794;17.616;2022-08-25T14:00:39;4.00;;;0.90;;
56770;SDS011;42641;59.794;17.616;2022-08-25T14:03:16;1.00;;;0.85;;
56770;SDS011;42641;59.794;17.616;2022-08-25T14:08:41;2.25;;;0.85;;
56770;SDS011;42641;59.794;17.616;2022-08-25T14:13:58;1.52;;;0.90;;
56770;SDS011;42641;59.794;17.616;2022-08-25T14:16:31;1.08;;;0.90;;
56770;SDS011;42641;59.794;17.616;2022-08-25T14:19:01;0.80;;;0.80;;
56770;SDS011;42641;59.794;17.616;2022-08-25T14:21:29;1.17;;;0.80;;
56770;SDS011;42641;59.794;17.616;2022-08-25T14:23:58;1.38;;;0.77;;
56770;SDS011;42641;59.794;17.616;2022-08-25T14:26:25;0.90;;;0.77;;
56770;SDS011;42641;59.794;17.616;2022-08-25T14:28:51;1.08;;;1.00;;
56770;SDS011;42641;59.794;17.616;2022-08-25T14:31:28;1.10;;;0.80;;
56770;SDS011;42641;59.794;17.616;2022-08-25T14:34:19;1.38;;;1.08;;
56770;SDS011;42641;59.794;17.616;2022-08-25T14:36:50;1.52;;;1.10;;
56770;SDS011;42641;59.794;17.616;2022-08-25T14:39:17;1.08;;;0.85;;
56770;SDS011;42641;59.794;17.616;2022-08-25T14:41:44;2.20;;;0.70;;
56770;SDS011;42641;59.794;17.616;2022-08-25T14:44:15;1.77;;;0.60;;
56770;SDS011;42641;59.794;17.616;2022-08-25T14:46:47;1.48;;;0.70;;
56770;SDS011;42641;59.794;17.616;2022-08-25T14:49:20;2.22;;;0.77;;
56770;SDS011;42641;59.794;17.616;2022-08-25T14:51:51;0.80;;;0.80;;
56770;SDS011;42641;59.794;17.616;2022-08-25T14:54:18;1.25;;;0.80;;
56770;SDS011;42641;59.794;17.616;2022-08-25T14:56:46;1.58;;;0.80;;
56770;SDS011;42641;59.794;17.616;2022-08-25T14:59:13;1.17;;;0.88;;
56770;SDS011;42641;59.794;17.616;2022-08-25T15:01:40;0.98;;;0.70;;
56770;SDS011;42641;59.794;17.616;2022-08-25T15:04:11;2.25;;;0.65;;
56770;SDS011;42641;59.794;17.616;2022-08-25T15:06:44;0.95;;;0.77;;
56770;SDS011;42641;59.794;17.616;2022-08-25T15:09:14;0.68;;;0.68;;
56770;SDS011;42641;59.794;17.616;2022-08-25T15:11:43;0.98;;;0.90;;
56770;SDS011;42641;59.794;17.616;2022-08-25T15:14:12;1.58;;;0.95;;
56770;SDS011;42641;59.794;17.616;2022-08-25T15:16:47;1.13;;;0.80;;
56770;SDS011;42641;59.794;17.616;2022-08-25T15:19:16;0.70;;;0.70;;
56770;SDS011;42641;59.794;17.616;2022-08-25T15:21:45;0.65;;;0.60;;
56770;SDS011;42641;59.794;17.616;2022-08-25T15:24:12;1.10;;;1.00;;
56770;SDS011;42641;59.794;17.616;2022-08-25T15:26:41;0.75;;;0.68;;
56770;SDS011;42641;59.794;17.616;2022-08-25T15:29:11;0.95;;;0.90;;
56770;SDS011;42641;59.794;17.616;2022-08-25T15:31:37;0.95;;;0.70;;
56770;SDS011;42641;59.794;17.616;2022-08-25T15:34:05;0.88;;;0.88;;
56770;SDS011;42641;59.794;17.616;2022-08-25T15:36:32;1.95;;;0.73;;
56770;SDS011;42641;59.794;17.616;2022-08-25T15:38:59;1.90;;;0.90;;
56770;SDS011;42641;59.794;17.616;2022-08-25T15:41:25;1.65;;;0.88;;
56770;SDS011;42641;59.794;17.616;2022-08-25T15:43:52;3.33;;;1.10;;
56770;SDS011;42641;59.794;17.616;2022-08-25T15:46:19;0.70;;;0.70;;
56770;SDS011;42641;59.794;17.616;2022-08-25T15:48:47;0.80;;;0.80;;
56770;SDS011;42641;59.794;17.616;2022-08-25T15:51:14;1.13;;;0.90;;
56770;SDS011;42641;59.794;17.616;2022-08-25T15:53:44;1.02;;;0.70;;
56770;SDS011;42641;59.794;17.616;2022-08-25T15:56:10;2.60;;;1.10;;
56770;SDS011;42641;59.794;17.616;2022-08-25T15:58:44;2.15;;;0.90;;
56770;SDS011;42641;59.794;17.616;2022-08-25T16:01:12;1.63;;;1.00;;
56770;SDS011;42641;59.794;17.616;2022-08-25T16:03:40;1.75;;;1.05;;
56770;SDS011;42641;59.794;17.616;2022-08-25T16:06:07;0.90;;;0.80;;
56770;SDS011;42641;59.794;17.616;2022-08-25T16:08:34;0.80;;;0.80;;
56770;SDS011;42641;59.794;17.616;2022-08-25T16:11:00;0.98;;;0.82;;
56770;SDS011;42641;59.794;17.616;2022-08-25T16:13:27;0.90;;;0.90;;
56770;SDS011;42641;59.794;17.616;2022-08-25T16:15:53;0.88;;;0.88;;
56770;SDS011;42641;59.794;17.616;2022-08-25T16:18:21;1.73;;;1.08;;
56770;SDS011;42641;59.794;17.616;2022-08-25T16:20:48;0.82;;;0.82;;
56770;SDS011;42641;59.794;17.616;2022-08-25T16:23:15;2.50;;;0.93;;
56770;SDS011;42641;59.794;17.616;2022-08-25T16:25:43;1.90;;;0.90;;
56770;SDS011;42641;59.794;17.616;2022-08-25T16:28:11;1.90;;;1.25;;
56770;SDS011;42641;59.794;17.616;2022-08-25T16:30:43;0.80;;;0.80;;
56770;SDS011;42641;59.794;17.616;2022-08-25T16:33:10;1.23;;;1.13;;
56770;SDS011;42641;59.794;17.616;2022-08-25T16:35:37;1.10;;;1.08;;
56770;SDS011;42641;59.794;17.616;2022-08-25T16:38:03;1.10;;;1.00;;
56770;SDS011;42641;59.794;17.616;2022-08-25T16:40:31;1.00;;;0.93;;
56770;SDS011;42641;59.794;17.616;2022-08-25T16:42:57;1.38;;;1.00;;
56770;SDS011;42641;59.794;17.616;2022-08-25T16:45:23;1.27;;;1.17;;
56770;SDS011;42641;59.794;17.616;2022-08-25T16:47:50;1.40;;;1.30;;
56770;SDS011;42641;59.794;17.616;2022-08-25T16:50:17;1.58;;;1.10;;
56770;SDS011;42641;59.794;17.616;2022-08-25T16:52:43;1.20;;;1.10;;
56770;SDS011;42641;59.794;17.616;2022-08-25T16:55:28;1.77;;;1.10;;
56770;SDS011;42641;59.794;17.616;2022-08-25T16:57:57;1.00;;;1.00;;
56770;SDS011;42641;59.794;17.616;2022-08-25T17:00:26;1.20;;;1.10;;
56770;SDS011;42641;59.794;17.616;2022-08-25T17:02:54;1.20;;;1.10;;